<?xml version="1.0" encoding="UTF-8" standalone="no" ?>
<gpx xmlns="http://www.topografix.com/GPX/1/1" xmlns:xsi="http://www.w3.org/2001/XMLSchema-instance" xsi:schemaLocation="http://www.topografix.com/GPX/1/1 http://www.topografix.com/GPX/1/1/gpx.xsd" version="1.1" creator="VisuGPX - https://www.visugpx.com">
  <metadata>
    <name>Soultz</name>
    <desc><![CDATA[marche pop de Soultz 2016]]></desc>
  </metadata>
  <trk>
    <name><![CDATA[Soultz_1]]></name>
    <trkseg>
      <trkpt lat="47.88787" lon="7.23233">
        <ele>267</ele>
        <time>2016-04-10T08:54:35Z</time>
      </trkpt>
      <trkpt lat="47.88787" lon="7.23233">
        <ele>330</ele>
        <time>2016-04-10T08:54:37Z</time>
      </trkpt>
      <trkpt lat="47.88767" lon="7.23229">
        <ele>326</ele>
        <time>2016-04-10T08:55:00Z</time>
      </trkpt>
      <trkpt lat="47.88767" lon="7.23229">
        <ele>326</ele>
        <time>2016-04-10T08:55:08Z</time>
      </trkpt>
      <trkpt lat="47.88767" lon="7.23229">
        <ele>326</ele>
        <time>2016-04-10T08:55:10Z</time>
      </trkpt>
      <trkpt lat="47.8877" lon="7.23197">
        <ele>320</ele>
        <time>2016-04-10T08:55:29Z</time>
      </trkpt>
      <trkpt lat="47.88766" lon="7.23173">
        <ele>322</ele>
        <time>2016-04-10T08:55:38Z</time>
      </trkpt>
      <trkpt lat="47.8876" lon="7.23162">
        <ele>318</ele>
        <time>2016-04-10T08:55:48Z</time>
      </trkpt>
      <trkpt lat="47.88744" lon="7.23167">
        <ele>312</ele>
        <time>2016-04-10T08:55:57Z</time>
      </trkpt>
      <trkpt lat="47.88727" lon="7.23169">
        <ele>318</ele>
        <time>2016-04-10T08:56:09Z</time>
      </trkpt>
      <trkpt lat="47.8871" lon="7.23173">
        <ele>316</ele>
        <time>2016-04-10T08:56:26Z</time>
      </trkpt>
      <trkpt lat="47.88695" lon="7.23179">
        <ele>314</ele>
        <time>2016-04-10T08:56:39Z</time>
      </trkpt>
      <trkpt lat="47.88683" lon="7.23157">
        <ele>314</ele>
        <time>2016-04-10T08:56:57Z</time>
      </trkpt>
      <trkpt lat="47.88689" lon="7.23128">
        <ele>313</ele>
        <time>2016-04-10T08:57:13Z</time>
      </trkpt>
      <trkpt lat="47.88701" lon="7.2311">
        <ele>314</ele>
        <time>2016-04-10T08:57:24Z</time>
      </trkpt>
      <trkpt lat="47.88706" lon="7.23108">
        <ele>316</ele>
        <time>2016-04-10T08:57:28Z</time>
      </trkpt>
      <trkpt lat="47.88701" lon="7.23095">
        <ele>316</ele>
        <time>2016-04-10T08:57:42Z</time>
      </trkpt>
      <trkpt lat="47.8868" lon="7.23061">
        <ele>325</ele>
        <time>2016-04-10T08:58:00Z</time>
      </trkpt>
      <trkpt lat="47.88666" lon="7.23055">
        <ele>326</ele>
        <time>2016-04-10T08:58:19Z</time>
      </trkpt>
      <trkpt lat="47.88654" lon="7.2303">
        <ele>329</ele>
        <time>2016-04-10T08:58:34Z</time>
      </trkpt>
      <trkpt lat="47.88652" lon="7.23028">
        <ele>328</ele>
        <time>2016-04-10T08:58:42Z</time>
      </trkpt>
      <trkpt lat="47.88627" lon="7.23035">
        <ele>329</ele>
        <time>2016-04-10T09:00:01Z</time>
      </trkpt>
      <trkpt lat="47.88614" lon="7.23042">
        <ele>326</ele>
        <time>2016-04-10T09:00:13Z</time>
      </trkpt>
      <trkpt lat="47.88596" lon="7.23066">
        <ele>322</ele>
        <time>2016-04-10T09:00:34Z</time>
      </trkpt>
      <trkpt lat="47.88576" lon="7.23071">
        <ele>328</ele>
        <time>2016-04-10T09:00:52Z</time>
      </trkpt>
      <trkpt lat="47.88558" lon="7.23077">
        <ele>326</ele>
        <time>2016-04-10T09:01:07Z</time>
      </trkpt>
      <trkpt lat="47.88543" lon="7.23092">
        <ele>326</ele>
        <time>2016-04-10T09:01:20Z</time>
      </trkpt>
      <trkpt lat="47.88533" lon="7.23114">
        <ele>319</ele>
        <time>2016-04-10T09:01:37Z</time>
      </trkpt>
      <trkpt lat="47.88527" lon="7.23127">
        <ele>317</ele>
        <time>2016-04-10T09:01:45Z</time>
      </trkpt>
      <trkpt lat="47.88527" lon="7.23127">
        <ele>317</ele>
        <time>2016-04-10T09:01:54Z</time>
      </trkpt>
      <trkpt lat="47.88527" lon="7.23127">
        <ele>317</ele>
        <time>2016-04-10T09:01:55Z</time>
      </trkpt>
      <trkpt lat="47.88508" lon="7.23123">
        <ele>319</ele>
        <time>2016-04-10T09:02:06Z</time>
      </trkpt>
      <trkpt lat="47.88487" lon="7.2311">
        <ele>315</ele>
        <time>2016-04-10T09:02:19Z</time>
      </trkpt>
      <trkpt lat="47.88478" lon="7.23101">
        <ele>314</ele>
        <time>2016-04-10T09:02:29Z</time>
      </trkpt>
      <trkpt lat="47.88468" lon="7.23093">
        <ele>318</ele>
        <time>2016-04-10T09:02:39Z</time>
      </trkpt>
      <trkpt lat="47.88447" lon="7.23059">
        <ele>334</ele>
        <time>2016-04-10T09:03:03Z</time>
      </trkpt>
      <trkpt lat="47.88436" lon="7.23064">
        <ele>327</ele>
        <time>2016-04-10T09:03:10Z</time>
      </trkpt>
      <trkpt lat="47.88422" lon="7.23076">
        <ele>320</ele>
        <time>2016-04-10T09:03:23Z</time>
      </trkpt>
      <trkpt lat="47.88412" lon="7.23077">
        <ele>321</ele>
        <time>2016-04-10T09:03:34Z</time>
      </trkpt>
      <trkpt lat="47.88399" lon="7.23067">
        <ele>320</ele>
        <time>2016-04-10T09:03:49Z</time>
      </trkpt>
      <trkpt lat="47.8838" lon="7.23063">
        <ele>323</ele>
        <time>2016-04-10T09:04:06Z</time>
      </trkpt>
      <trkpt lat="47.88361" lon="7.23047">
        <ele>326</ele>
        <time>2016-04-10T09:04:25Z</time>
      </trkpt>
      <trkpt lat="47.88341" lon="7.23031">
        <ele>322</ele>
        <time>2016-04-10T09:04:42Z</time>
      </trkpt>
      <trkpt lat="47.88325" lon="7.23027">
        <ele>322</ele>
        <time>2016-04-10T09:04:56Z</time>
      </trkpt>
      <trkpt lat="47.88309" lon="7.23021">
        <ele>326</ele>
        <time>2016-04-10T09:05:11Z</time>
      </trkpt>
      <trkpt lat="47.88296" lon="7.23015">
        <ele>324</ele>
        <time>2016-04-10T09:05:22Z</time>
      </trkpt>
      <trkpt lat="47.88276" lon="7.22994">
        <ele>325</ele>
        <time>2016-04-10T09:05:42Z</time>
      </trkpt>
      <trkpt lat="47.88265" lon="7.22975">
        <ele>326</ele>
        <time>2016-04-10T09:05:57Z</time>
      </trkpt>
      <trkpt lat="47.8826" lon="7.22958">
        <ele>321</ele>
        <time>2016-04-10T09:06:09Z</time>
      </trkpt>
      <trkpt lat="47.88247" lon="7.2293">
        <ele>323</ele>
        <time>2016-04-10T09:06:26Z</time>
      </trkpt>
      <trkpt lat="47.88238" lon="7.22908">
        <ele>323</ele>
        <time>2016-04-10T09:06:40Z</time>
      </trkpt>
      <trkpt lat="47.88226" lon="7.2288">
        <ele>323</ele>
        <time>2016-04-10T09:06:58Z</time>
      </trkpt>
      <trkpt lat="47.88215" lon="7.22854">
        <ele>326</ele>
        <time>2016-04-10T09:07:14Z</time>
      </trkpt>
      <trkpt lat="47.88205" lon="7.22827">
        <ele>325</ele>
        <time>2016-04-10T09:07:31Z</time>
      </trkpt>
      <trkpt lat="47.88193" lon="7.2281">
        <ele>328</ele>
        <time>2016-04-10T09:07:45Z</time>
      </trkpt>
      <trkpt lat="47.88182" lon="7.22788">
        <ele>330</ele>
        <time>2016-04-10T09:07:59Z</time>
      </trkpt>
      <trkpt lat="47.88175" lon="7.22778">
        <ele>330</ele>
        <time>2016-04-10T09:08:06Z</time>
      </trkpt>
      <trkpt lat="47.88167" lon="7.22772">
        <ele>327</ele>
        <time>2016-04-10T09:08:17Z</time>
      </trkpt>
      <trkpt lat="47.88151" lon="7.22772">
        <ele>328</ele>
        <time>2016-04-10T09:08:30Z</time>
      </trkpt>
      <trkpt lat="47.88145" lon="7.22759">
        <ele>326</ele>
        <time>2016-04-10T09:08:39Z</time>
      </trkpt>
      <trkpt lat="47.88141" lon="7.22756">
        <ele>324</ele>
        <time>2016-04-10T09:08:47Z</time>
      </trkpt>
      <trkpt lat="47.88129" lon="7.2275">
        <ele>323</ele>
        <time>2016-04-10T09:09:00Z</time>
      </trkpt>
      <trkpt lat="47.88118" lon="7.22741">
        <ele>330</ele>
        <time>2016-04-10T09:09:06Z</time>
      </trkpt>
      <trkpt lat="47.88111" lon="7.22722">
        <ele>331</ele>
        <time>2016-04-10T09:09:18Z</time>
      </trkpt>
      <trkpt lat="47.88091" lon="7.22706">
        <ele>332</ele>
        <time>2016-04-10T09:09:35Z</time>
      </trkpt>
      <trkpt lat="47.8808" lon="7.22693">
        <ele>335</ele>
        <time>2016-04-10T09:09:47Z</time>
      </trkpt>
      <trkpt lat="47.8807" lon="7.2268">
        <ele>333</ele>
        <time>2016-04-10T09:09:57Z</time>
      </trkpt>
      <trkpt lat="47.88067" lon="7.22672">
        <ele>330</ele>
        <time>2016-04-10T09:10:09Z</time>
      </trkpt>
      <trkpt lat="47.88045" lon="7.22645">
        <ele>331</ele>
        <time>2016-04-10T09:10:27Z</time>
      </trkpt>
      <trkpt lat="47.88026" lon="7.22621">
        <ele>332</ele>
        <time>2016-04-10T09:10:45Z</time>
      </trkpt>
      <trkpt lat="47.8801" lon="7.22602">
        <ele>332</ele>
        <time>2016-04-10T09:11:02Z</time>
      </trkpt>
      <trkpt lat="47.87997" lon="7.22583">
        <ele>334</ele>
        <time>2016-04-10T09:11:17Z</time>
      </trkpt>
      <trkpt lat="47.87988" lon="7.22556">
        <ele>330</ele>
        <time>2016-04-10T09:11:32Z</time>
      </trkpt>
      <trkpt lat="47.87984" lon="7.22541">
        <ele>332</ele>
        <time>2016-04-10T09:11:42Z</time>
      </trkpt>
      <trkpt lat="47.87979" lon="7.22512">
        <ele>334</ele>
        <time>2016-04-10T09:11:58Z</time>
      </trkpt>
      <trkpt lat="47.87974" lon="7.22487">
        <ele>330</ele>
        <time>2016-04-10T09:12:11Z</time>
      </trkpt>
      <trkpt lat="47.87972" lon="7.22472">
        <ele>330</ele>
        <time>2016-04-10T09:12:21Z</time>
      </trkpt>
      <trkpt lat="47.87965" lon="7.22447">
        <ele>328</ele>
        <time>2016-04-10T09:12:36Z</time>
      </trkpt>
      <trkpt lat="47.8796" lon="7.22433">
        <ele>328</ele>
        <time>2016-04-10T09:12:43Z</time>
      </trkpt>
      <trkpt lat="47.87958" lon="7.22427">
        <ele>327</ele>
        <time>2016-04-10T09:12:53Z</time>
      </trkpt>
      <trkpt lat="47.87946" lon="7.22418">
        <ele>333</ele>
        <time>2016-04-10T09:13:03Z</time>
      </trkpt>
      <trkpt lat="47.87929" lon="7.22412">
        <ele>334</ele>
        <time>2016-04-10T09:13:18Z</time>
      </trkpt>
      <trkpt lat="47.87914" lon="7.22419">
        <ele>335</ele>
        <time>2016-04-10T09:13:31Z</time>
      </trkpt>
      <trkpt lat="47.87893" lon="7.22418">
        <ele>333</ele>
        <time>2016-04-10T09:13:47Z</time>
      </trkpt>
      <trkpt lat="47.87871" lon="7.22413">
        <ele>334</ele>
        <time>2016-04-10T09:14:03Z</time>
      </trkpt>
      <trkpt lat="47.8785" lon="7.22419">
        <ele>341</ele>
        <time>2016-04-10T09:14:21Z</time>
      </trkpt>
      <trkpt lat="47.87829" lon="7.22419">
        <ele>342</ele>
        <time>2016-04-10T09:14:41Z</time>
      </trkpt>
      <trkpt lat="47.87808" lon="7.22413">
        <ele>338</ele>
        <time>2016-04-10T09:14:58Z</time>
      </trkpt>
      <trkpt lat="47.87786" lon="7.22413">
        <ele>337</ele>
        <time>2016-04-10T09:15:15Z</time>
      </trkpt>
      <trkpt lat="47.8777" lon="7.2241">
        <ele>340</ele>
        <time>2016-04-10T09:15:28Z</time>
      </trkpt>
      <trkpt lat="47.87757" lon="7.22408">
        <ele>339</ele>
        <time>2016-04-10T09:15:40Z</time>
      </trkpt>
      <trkpt lat="47.87741" lon="7.22413">
        <ele>339</ele>
        <time>2016-04-10T09:15:55Z</time>
      </trkpt>
      <trkpt lat="47.87721" lon="7.22406">
        <ele>340</ele>
        <time>2016-04-10T09:16:11Z</time>
      </trkpt>
      <trkpt lat="47.87705" lon="7.22401">
        <ele>332</ele>
        <time>2016-04-10T09:16:25Z</time>
      </trkpt>
      <trkpt lat="47.8769" lon="7.22398">
        <ele>337</ele>
        <time>2016-04-10T09:16:37Z</time>
      </trkpt>
      <trkpt lat="47.87671" lon="7.22392">
        <ele>336</ele>
        <time>2016-04-10T09:16:52Z</time>
      </trkpt>
      <trkpt lat="47.87652" lon="7.22385">
        <ele>335</ele>
        <time>2016-04-10T09:17:07Z</time>
      </trkpt>
      <trkpt lat="47.87632" lon="7.22379">
        <ele>332</ele>
        <time>2016-04-10T09:17:24Z</time>
      </trkpt>
      <trkpt lat="47.87612" lon="7.22373">
        <ele>329</ele>
        <time>2016-04-10T09:17:40Z</time>
      </trkpt>
      <trkpt lat="47.87593" lon="7.22369">
        <ele>330</ele>
        <time>2016-04-10T09:17:55Z</time>
      </trkpt>
      <trkpt lat="47.87581" lon="7.22367">
        <ele>331</ele>
        <time>2016-04-10T09:18:05Z</time>
      </trkpt>
      <trkpt lat="47.87571" lon="7.22362">
        <ele>329</ele>
        <time>2016-04-10T09:18:13Z</time>
      </trkpt>
      <trkpt lat="47.87558" lon="7.22353">
        <ele>329</ele>
        <time>2016-04-10T09:18:24Z</time>
      </trkpt>
      <trkpt lat="47.87543" lon="7.22349">
        <ele>329</ele>
        <time>2016-04-10T09:18:36Z</time>
      </trkpt>
      <trkpt lat="47.87521" lon="7.22349">
        <ele>334</ele>
        <time>2016-04-10T09:18:54Z</time>
      </trkpt>
      <trkpt lat="47.87503" lon="7.22338">
        <ele>336</ele>
        <time>2016-04-10T09:19:11Z</time>
      </trkpt>
      <trkpt lat="47.87498" lon="7.22312">
        <ele>334</ele>
        <time>2016-04-10T09:19:22Z</time>
      </trkpt>
      <trkpt lat="47.87496" lon="7.22288">
        <ele>333</ele>
        <time>2016-04-10T09:19:35Z</time>
      </trkpt>
      <trkpt lat="47.87493" lon="7.22262">
        <ele>331</ele>
        <time>2016-04-10T09:19:49Z</time>
      </trkpt>
      <trkpt lat="47.87497" lon="7.2224">
        <ele>330</ele>
        <time>2016-04-10T09:20:02Z</time>
      </trkpt>
      <trkpt lat="47.87497" lon="7.22211">
        <ele>329</ele>
        <time>2016-04-10T09:20:18Z</time>
      </trkpt>
      <trkpt lat="47.87498" lon="7.22189">
        <ele>328</ele>
        <time>2016-04-10T09:20:31Z</time>
      </trkpt>
      <trkpt lat="47.87498" lon="7.22164">
        <ele>330</ele>
        <time>2016-04-10T09:20:45Z</time>
      </trkpt>
      <trkpt lat="47.875" lon="7.22138">
        <ele>331</ele>
        <time>2016-04-10T09:21:00Z</time>
      </trkpt>
      <trkpt lat="47.87503" lon="7.22113">
        <ele>332</ele>
        <time>2016-04-10T09:21:15Z</time>
      </trkpt>
      <trkpt lat="47.87506" lon="7.22081">
        <ele>334</ele>
        <time>2016-04-10T09:21:33Z</time>
      </trkpt>
      <trkpt lat="47.87507" lon="7.22052">
        <ele>333</ele>
        <time>2016-04-10T09:21:47Z</time>
      </trkpt>
      <trkpt lat="47.87509" lon="7.22029">
        <ele>335</ele>
        <time>2016-04-10T09:22:00Z</time>
      </trkpt>
      <trkpt lat="47.87508" lon="7.22006">
        <ele>335</ele>
        <time>2016-04-10T09:22:13Z</time>
      </trkpt>
      <trkpt lat="47.87508" lon="7.2198">
        <ele>336</ele>
        <time>2016-04-10T09:22:28Z</time>
      </trkpt>
      <trkpt lat="47.8751" lon="7.21944">
        <ele>337</ele>
        <time>2016-04-10T09:22:45Z</time>
      </trkpt>
      <trkpt lat="47.87509" lon="7.21929">
        <ele>336</ele>
        <time>2016-04-10T09:22:52Z</time>
      </trkpt>
      <trkpt lat="47.87509" lon="7.21909">
        <ele>340</ele>
        <time>2016-04-10T09:23:03Z</time>
      </trkpt>
      <trkpt lat="47.8751" lon="7.21892">
        <ele>340</ele>
        <time>2016-04-10T09:23:14Z</time>
      </trkpt>
      <trkpt lat="47.87509" lon="7.21859">
        <ele>337</ele>
        <time>2016-04-10T09:23:33Z</time>
      </trkpt>
      <trkpt lat="47.87508" lon="7.2184">
        <ele>339</ele>
        <time>2016-04-10T09:23:44Z</time>
      </trkpt>
      <trkpt lat="47.87506" lon="7.21817">
        <ele>339</ele>
        <time>2016-04-10T09:23:56Z</time>
      </trkpt>
      <trkpt lat="47.87504" lon="7.21795">
        <ele>337</ele>
        <time>2016-04-10T09:24:09Z</time>
      </trkpt>
      <trkpt lat="47.87505" lon="7.21775">
        <ele>336</ele>
        <time>2016-04-10T09:24:22Z</time>
      </trkpt>
      <trkpt lat="47.87503" lon="7.21738">
        <ele>337</ele>
        <time>2016-04-10T09:24:40Z</time>
      </trkpt>
      <trkpt lat="47.87505" lon="7.21709">
        <ele>340</ele>
        <time>2016-04-10T09:24:56Z</time>
      </trkpt>
      <trkpt lat="47.87505" lon="7.21684">
        <ele>343</ele>
        <time>2016-04-10T09:25:11Z</time>
      </trkpt>
      <trkpt lat="47.87504" lon="7.21655">
        <ele>341</ele>
        <time>2016-04-10T09:25:27Z</time>
      </trkpt>
      <trkpt lat="47.87502" lon="7.21638">
        <ele>339</ele>
        <time>2016-04-10T09:25:38Z</time>
      </trkpt>
      <trkpt lat="47.87486" lon="7.21619">
        <ele>340</ele>
        <time>2016-04-10T09:25:55Z</time>
      </trkpt>
      <trkpt lat="47.87482" lon="7.21616">
        <ele>338</ele>
        <time>2016-04-10T09:25:58Z</time>
      </trkpt>
      <trkpt lat="47.87476" lon="7.2162">
        <ele>344</ele>
        <time>2016-04-10T09:26:11Z</time>
      </trkpt>
      <trkpt lat="47.87473" lon="7.21639">
        <ele>347</ele>
        <time>2016-04-10T09:26:29Z</time>
      </trkpt>
      <trkpt lat="47.87473" lon="7.21645">
        <ele>348</ele>
        <time>2016-04-10T09:26:35Z</time>
      </trkpt>
      <trkpt lat="47.87472" lon="7.21647">
        <ele>349</ele>
        <time>2016-04-10T09:26:43Z</time>
      </trkpt>
      <trkpt lat="47.87448" lon="7.2162">
        <ele>351</ele>
        <time>2016-04-10T09:32:44Z</time>
      </trkpt>
      <trkpt lat="47.87426" lon="7.21622">
        <ele>350</ele>
        <time>2016-04-10T09:33:01Z</time>
      </trkpt>
      <trkpt lat="47.87415" lon="7.21624">
        <ele>350</ele>
        <time>2016-04-10T09:33:09Z</time>
      </trkpt>
      <trkpt lat="47.87405" lon="7.2163">
        <ele>351</ele>
        <time>2016-04-10T09:33:18Z</time>
      </trkpt>
      <trkpt lat="47.8739" lon="7.21651">
        <ele>348</ele>
        <time>2016-04-10T09:33:37Z</time>
      </trkpt>
      <trkpt lat="47.87373" lon="7.21672">
        <ele>346</ele>
        <time>2016-04-10T09:33:56Z</time>
      </trkpt>
      <trkpt lat="47.87359" lon="7.21689">
        <ele>347</ele>
        <time>2016-04-10T09:34:09Z</time>
      </trkpt>
      <trkpt lat="47.87349" lon="7.21696">
        <ele>348</ele>
        <time>2016-04-10T09:34:18Z</time>
      </trkpt>
      <trkpt lat="47.87337" lon="7.21708">
        <ele>349</ele>
        <time>2016-04-10T09:34:29Z</time>
      </trkpt>
      <trkpt lat="47.8732" lon="7.21721">
        <ele>348</ele>
        <time>2016-04-10T09:34:44Z</time>
      </trkpt>
      <trkpt lat="47.87309" lon="7.21729">
        <ele>348</ele>
        <time>2016-04-10T09:34:54Z</time>
      </trkpt>
      <trkpt lat="47.87288" lon="7.21733">
        <ele>346</ele>
        <time>2016-04-10T09:35:09Z</time>
      </trkpt>
      <trkpt lat="47.87274" lon="7.21742">
        <ele>348</ele>
        <time>2016-04-10T09:35:22Z</time>
      </trkpt>
      <trkpt lat="47.87251" lon="7.21752">
        <ele>345</ele>
        <time>2016-04-10T09:35:41Z</time>
      </trkpt>
      <trkpt lat="47.87234" lon="7.21758">
        <ele>345</ele>
        <time>2016-04-10T09:35:55Z</time>
      </trkpt>
      <trkpt lat="47.87214" lon="7.21768">
        <ele>345</ele>
        <time>2016-04-10T09:36:12Z</time>
      </trkpt>
      <trkpt lat="47.87196" lon="7.21777">
        <ele>347</ele>
        <time>2016-04-10T09:36:27Z</time>
      </trkpt>
      <trkpt lat="47.8718" lon="7.21776">
        <ele>344</ele>
        <time>2016-04-10T09:36:41Z</time>
      </trkpt>
      <trkpt lat="47.87161" lon="7.2177">
        <ele>345</ele>
        <time>2016-04-10T09:36:57Z</time>
      </trkpt>
      <trkpt lat="47.87137" lon="7.21765">
        <ele>333</ele>
        <time>2016-04-10T09:37:17Z</time>
      </trkpt>
      <trkpt lat="47.8712" lon="7.21765">
        <ele>333</ele>
        <time>2016-04-10T09:37:30Z</time>
      </trkpt>
      <trkpt lat="47.871" lon="7.21764">
        <ele>335</ele>
        <time>2016-04-10T09:37:44Z</time>
      </trkpt>
      <trkpt lat="47.871" lon="7.21764">
        <ele>335</ele>
        <time>2016-04-10T09:37:49Z</time>
      </trkpt>
      <trkpt lat="47.8709" lon="7.21764">
        <ele>334</ele>
        <time>2016-04-10T09:37:55Z</time>
      </trkpt>
      <trkpt lat="47.87067" lon="7.21756">
        <ele>337</ele>
        <time>2016-04-10T09:38:12Z</time>
      </trkpt>
      <trkpt lat="47.87063" lon="7.21754">
        <ele>339</ele>
        <time>2016-04-10T09:38:15Z</time>
      </trkpt>
      <trkpt lat="47.87055" lon="7.21751">
        <ele>334</ele>
        <time>2016-04-10T09:38:25Z</time>
      </trkpt>
      <trkpt lat="47.8704" lon="7.2174">
        <ele>328</ele>
        <time>2016-04-10T09:38:36Z</time>
      </trkpt>
      <trkpt lat="47.87038" lon="7.21715">
        <ele>326</ele>
        <time>2016-04-10T09:38:54Z</time>
      </trkpt>
      <trkpt lat="47.87033" lon="7.21687">
        <ele>324</ele>
        <time>2016-04-10T09:39:11Z</time>
      </trkpt>
      <trkpt lat="47.87034" lon="7.21652">
        <ele>329</ele>
        <time>2016-04-10T09:39:30Z</time>
      </trkpt>
      <trkpt lat="47.87034" lon="7.21625">
        <ele>326</ele>
        <time>2016-04-10T09:39:46Z</time>
      </trkpt>
      <trkpt lat="47.87033" lon="7.21596">
        <ele>323</ele>
        <time>2016-04-10T09:40:03Z</time>
      </trkpt>
      <trkpt lat="47.87035" lon="7.21564">
        <ele>326</ele>
        <time>2016-04-10T09:40:18Z</time>
      </trkpt>
      <trkpt lat="47.87033" lon="7.21541">
        <ele>326</ele>
        <time>2016-04-10T09:40:32Z</time>
      </trkpt>
      <trkpt lat="47.8703" lon="7.21518">
        <ele>325</ele>
        <time>2016-04-10T09:40:47Z</time>
      </trkpt>
      <trkpt lat="47.87022" lon="7.21501">
        <ele>328</ele>
        <time>2016-04-10T09:41:03Z</time>
      </trkpt>
      <trkpt lat="47.87007" lon="7.21499">
        <ele>326</ele>
        <time>2016-04-10T09:41:15Z</time>
      </trkpt>
      <trkpt lat="47.87007" lon="7.21499">
        <ele>326</ele>
        <time>2016-04-10T09:41:20Z</time>
      </trkpt>
      <trkpt lat="47.87007" lon="7.21499">
        <ele>326</ele>
        <time>2016-04-10T09:41:21Z</time>
      </trkpt>
      <trkpt lat="47.86992" lon="7.215">
        <ele>330</ele>
        <time>2016-04-10T09:41:34Z</time>
      </trkpt>
      <trkpt lat="47.86971" lon="7.21481">
        <ele>327</ele>
        <time>2016-04-10T09:41:53Z</time>
      </trkpt>
      <trkpt lat="47.86966" lon="7.21462">
        <ele>325</ele>
        <time>2016-04-10T09:42:03Z</time>
      </trkpt>
      <trkpt lat="47.86955" lon="7.21445">
        <ele>324</ele>
        <time>2016-04-10T09:42:18Z</time>
      </trkpt>
      <trkpt lat="47.86937" lon="7.21442">
        <ele>323</ele>
        <time>2016-04-10T09:42:34Z</time>
      </trkpt>
      <trkpt lat="47.86923" lon="7.21439">
        <ele>323</ele>
        <time>2016-04-10T09:42:45Z</time>
      </trkpt>
      <trkpt lat="47.86909" lon="7.21445">
        <ele>323</ele>
        <time>2016-04-10T09:42:56Z</time>
      </trkpt>
      <trkpt lat="47.86892" lon="7.21442">
        <ele>323</ele>
        <time>2016-04-10T09:43:10Z</time>
      </trkpt>
      <trkpt lat="47.8688" lon="7.21442">
        <ele>322</ele>
        <time>2016-04-10T09:43:20Z</time>
      </trkpt>
      <trkpt lat="47.8687" lon="7.21449">
        <ele>322</ele>
        <time>2016-04-10T09:43:29Z</time>
      </trkpt>
      <trkpt lat="47.86859" lon="7.21443">
        <ele>320</ele>
        <time>2016-04-10T09:43:37Z</time>
      </trkpt>
      <trkpt lat="47.86843" lon="7.21439">
        <ele>319</ele>
        <time>2016-04-10T09:43:51Z</time>
      </trkpt>
      <trkpt lat="47.86834" lon="7.21442">
        <ele>321</ele>
        <time>2016-04-10T09:43:59Z</time>
      </trkpt>
      <trkpt lat="47.86824" lon="7.21443">
        <ele>319</ele>
        <time>2016-04-10T09:44:10Z</time>
      </trkpt>
      <trkpt lat="47.86803" lon="7.21442">
        <ele>314</ele>
        <time>2016-04-10T09:44:25Z</time>
      </trkpt>
      <trkpt lat="47.86786" lon="7.2144">
        <ele>313</ele>
        <time>2016-04-10T09:44:39Z</time>
      </trkpt>
      <trkpt lat="47.86769" lon="7.21439">
        <ele>312</ele>
        <time>2016-04-10T09:44:52Z</time>
      </trkpt>
      <trkpt lat="47.8675" lon="7.2144">
        <ele>312</ele>
        <time>2016-04-10T09:45:07Z</time>
      </trkpt>
      <trkpt lat="47.8673" lon="7.21439">
        <ele>308</ele>
        <time>2016-04-10T09:45:23Z</time>
      </trkpt>
      <trkpt lat="47.86725" lon="7.21439">
        <ele>310</ele>
        <time>2016-04-10T09:45:27Z</time>
      </trkpt>
      <trkpt lat="47.86717" lon="7.21439">
        <ele>311</ele>
        <time>2016-04-10T09:45:38Z</time>
      </trkpt>
      <trkpt lat="47.86712" lon="7.21424">
        <ele>313</ele>
        <time>2016-04-10T09:45:46Z</time>
      </trkpt>
      <trkpt lat="47.8671" lon="7.21391">
        <ele>313</ele>
        <time>2016-04-10T09:46:02Z</time>
      </trkpt>
      <trkpt lat="47.86709" lon="7.21363">
        <ele>310</ele>
        <time>2016-04-10T09:46:14Z</time>
      </trkpt>
      <trkpt lat="47.86708" lon="7.21344">
        <ele>306</ele>
        <time>2016-04-10T09:46:26Z</time>
      </trkpt>
      <trkpt lat="47.86712" lon="7.21308">
        <ele>312</ele>
        <time>2016-04-10T09:46:43Z</time>
      </trkpt>
      <trkpt lat="47.86713" lon="7.21295">
        <ele>310</ele>
        <time>2016-04-10T09:46:52Z</time>
      </trkpt>
      <trkpt lat="47.86713" lon="7.21267">
        <ele>312</ele>
        <time>2016-04-10T09:47:06Z</time>
      </trkpt>
      <trkpt lat="47.86713" lon="7.21248">
        <ele>312</ele>
        <time>2016-04-10T09:47:16Z</time>
      </trkpt>
      <trkpt lat="47.86717" lon="7.21221">
        <ele>312</ele>
        <time>2016-04-10T09:47:32Z</time>
      </trkpt>
      <trkpt lat="47.86719" lon="7.21204">
        <ele>313</ele>
        <time>2016-04-10T09:47:43Z</time>
      </trkpt>
      <trkpt lat="47.86719" lon="7.21187">
        <ele>314</ele>
        <time>2016-04-10T09:47:54Z</time>
      </trkpt>
      <trkpt lat="47.86732" lon="7.21179">
        <ele>312</ele>
        <time>2016-04-10T09:48:12Z</time>
      </trkpt>
      <trkpt lat="47.86753" lon="7.21177">
        <ele>312</ele>
        <time>2016-04-10T09:48:30Z</time>
      </trkpt>
      <trkpt lat="47.86767" lon="7.21181">
        <ele>313</ele>
        <time>2016-04-10T09:48:44Z</time>
      </trkpt>
      <trkpt lat="47.86781" lon="7.21176">
        <ele>313</ele>
        <time>2016-04-10T09:48:58Z</time>
      </trkpt>
      <trkpt lat="47.86782" lon="7.21155">
        <ele>314</ele>
        <time>2016-04-10T09:49:10Z</time>
      </trkpt>
      <trkpt lat="47.86781" lon="7.21132">
        <ele>316</ele>
        <time>2016-04-10T09:49:26Z</time>
      </trkpt>
      <trkpt lat="47.8678" lon="7.21109">
        <ele>315</ele>
        <time>2016-04-10T09:49:38Z</time>
      </trkpt>
      <trkpt lat="47.86779" lon="7.21088">
        <ele>318</ele>
        <time>2016-04-10T09:49:49Z</time>
      </trkpt>
      <trkpt lat="47.86774" lon="7.21064">
        <ele>318</ele>
        <time>2016-04-10T09:50:06Z</time>
      </trkpt>
      <trkpt lat="47.86771" lon="7.21038">
        <ele>319</ele>
        <time>2016-04-10T09:50:23Z</time>
      </trkpt>
      <trkpt lat="47.8677" lon="7.21005">
        <ele>318</ele>
        <time>2016-04-10T09:50:41Z</time>
      </trkpt>
      <trkpt lat="47.86773" lon="7.2098">
        <ele>321</ele>
        <time>2016-04-10T09:50:56Z</time>
      </trkpt>
      <trkpt lat="47.86782" lon="7.20957">
        <ele>325</ele>
        <time>2016-04-10T09:51:13Z</time>
      </trkpt>
      <trkpt lat="47.86793" lon="7.2095">
        <ele>331</ele>
        <time>2016-04-10T09:51:25Z</time>
      </trkpt>
      <trkpt lat="47.86813" lon="7.20948">
        <ele>330</ele>
        <time>2016-04-10T09:51:43Z</time>
      </trkpt>
      <trkpt lat="47.86827" lon="7.20949">
        <ele>331</ele>
        <time>2016-04-10T09:51:57Z</time>
      </trkpt>
      <trkpt lat="47.86839" lon="7.20944">
        <ele>333</ele>
        <time>2016-04-10T09:52:10Z</time>
      </trkpt>
      <trkpt lat="47.86839" lon="7.20944">
        <ele>333</ele>
        <time>2016-04-10T09:52:17Z</time>
      </trkpt>
      <trkpt lat="47.86839" lon="7.20944">
        <ele>333</ele>
        <time>2016-04-10T09:52:18Z</time>
      </trkpt>
      <trkpt lat="47.86836" lon="7.20926">
        <ele>332</ele>
        <time>2016-04-10T09:52:25Z</time>
      </trkpt>
      <trkpt lat="47.86829" lon="7.20897">
        <ele>330</ele>
        <time>2016-04-10T09:52:44Z</time>
      </trkpt>
      <trkpt lat="47.86821" lon="7.20873">
        <ele>331</ele>
        <time>2016-04-10T09:53:01Z</time>
      </trkpt>
      <trkpt lat="47.86815" lon="7.20844">
        <ele>335</ele>
        <time>2016-04-10T09:53:17Z</time>
      </trkpt>
      <trkpt lat="47.86808" lon="7.20826">
        <ele>332</ele>
        <time>2016-04-10T09:53:28Z</time>
      </trkpt>
      <trkpt lat="47.86803" lon="7.20803">
        <ele>336</ele>
        <time>2016-04-10T09:53:43Z</time>
      </trkpt>
      <trkpt lat="47.86795" lon="7.20774">
        <ele>335</ele>
        <time>2016-04-10T09:53:59Z</time>
      </trkpt>
      <trkpt lat="47.8679" lon="7.20755">
        <ele>333</ele>
        <time>2016-04-10T09:54:11Z</time>
      </trkpt>
      <trkpt lat="47.86782" lon="7.20731">
        <ele>333</ele>
        <time>2016-04-10T09:54:26Z</time>
      </trkpt>
      <trkpt lat="47.86775" lon="7.2071">
        <ele>331</ele>
        <time>2016-04-10T09:54:39Z</time>
      </trkpt>
      <trkpt lat="47.86768" lon="7.20684">
        <ele>330</ele>
        <time>2016-04-10T09:54:55Z</time>
      </trkpt>
      <trkpt lat="47.86761" lon="7.20648">
        <ele>334</ele>
        <time>2016-04-10T09:55:14Z</time>
      </trkpt>
      <trkpt lat="47.86756" lon="7.20616">
        <ele>333</ele>
        <time>2016-04-10T09:55:30Z</time>
      </trkpt>
      <trkpt lat="47.86755" lon="7.20603">
        <ele>332</ele>
        <time>2016-04-10T09:55:40Z</time>
      </trkpt>
      <trkpt lat="47.8675" lon="7.20574">
        <ele>332</ele>
        <time>2016-04-10T09:55:57Z</time>
      </trkpt>
      <trkpt lat="47.86746" lon="7.20547">
        <ele>331</ele>
        <time>2016-04-10T09:56:13Z</time>
      </trkpt>
      <trkpt lat="47.86744" lon="7.20543">
        <ele>330</ele>
        <time>2016-04-10T09:56:15Z</time>
      </trkpt>
      <trkpt lat="47.86748" lon="7.20528">
        <ele>332</ele>
        <time>2016-04-10T09:56:27Z</time>
      </trkpt>
      <trkpt lat="47.8676" lon="7.20518">
        <ele>333</ele>
        <time>2016-04-10T09:56:46Z</time>
      </trkpt>
      <trkpt lat="47.86769" lon="7.2051">
        <ele>337</ele>
        <time>2016-04-10T09:56:56Z</time>
      </trkpt>
      <trkpt lat="47.86776" lon="7.20515">
        <ele>333</ele>
        <time>2016-04-10T09:57:10Z</time>
      </trkpt>
      <trkpt lat="47.86798" lon="7.20514">
        <ele>335</ele>
        <time>2016-04-10T09:57:31Z</time>
      </trkpt>
      <trkpt lat="47.86809" lon="7.2051">
        <ele>338</ele>
        <time>2016-04-10T09:57:46Z</time>
      </trkpt>
      <trkpt lat="47.8682" lon="7.20503">
        <ele>340</ele>
        <time>2016-04-10T09:58:01Z</time>
      </trkpt>
      <trkpt lat="47.86817" lon="7.20459">
        <ele>345</ele>
        <time>2016-04-10T09:58:36Z</time>
      </trkpt>
      <trkpt lat="47.86816" lon="7.20434">
        <ele>345</ele>
        <time>2016-04-10T09:58:55Z</time>
      </trkpt>
      <trkpt lat="47.86814" lon="7.20402">
        <ele>344</ele>
        <time>2016-04-10T09:59:16Z</time>
      </trkpt>
      <trkpt lat="47.8681" lon="7.20376">
        <ele>345</ele>
        <time>2016-04-10T09:59:32Z</time>
      </trkpt>
      <trkpt lat="47.86812" lon="7.20356">
        <ele>349</ele>
        <time>2016-04-10T09:59:45Z</time>
      </trkpt>
      <trkpt lat="47.86806" lon="7.20324">
        <ele>348</ele>
        <time>2016-04-10T10:00:04Z</time>
      </trkpt>
      <trkpt lat="47.86802" lon="7.20302">
        <ele>348</ele>
        <time>2016-04-10T10:00:18Z</time>
      </trkpt>
      <trkpt lat="47.86795" lon="7.20273">
        <ele>349</ele>
        <time>2016-04-10T10:00:39Z</time>
      </trkpt>
      <trkpt lat="47.86787" lon="7.20245">
        <ele>351</ele>
        <time>2016-04-10T10:00:59Z</time>
      </trkpt>
      <trkpt lat="47.86783" lon="7.2022">
        <ele>353</ele>
        <time>2016-04-10T10:01:13Z</time>
      </trkpt>
      <trkpt lat="47.86778" lon="7.2019">
        <ele>355</ele>
        <time>2016-04-10T10:01:31Z</time>
      </trkpt>
      <trkpt lat="47.86774" lon="7.20167">
        <ele>354</ele>
        <time>2016-04-10T10:01:45Z</time>
      </trkpt>
      <trkpt lat="47.86774" lon="7.20138">
        <ele>353</ele>
        <time>2016-04-10T10:02:03Z</time>
      </trkpt>
      <trkpt lat="47.86775" lon="7.20107">
        <ele>352</ele>
        <time>2016-04-10T10:02:26Z</time>
      </trkpt>
      <trkpt lat="47.86777" lon="7.20088">
        <ele>351</ele>
        <time>2016-04-10T10:02:40Z</time>
      </trkpt>
      <trkpt lat="47.86779" lon="7.20069">
        <ele>358</ele>
        <time>2016-04-10T10:02:50Z</time>
      </trkpt>
      <trkpt lat="47.86779" lon="7.20069">
        <ele>358</ele>
        <time>2016-04-10T10:02:55Z</time>
      </trkpt>
      <trkpt lat="47.86779" lon="7.20069">
        <ele>358</ele>
        <time>2016-04-10T10:02:56Z</time>
      </trkpt>
      <trkpt lat="47.86781" lon="7.2005">
        <ele>360</ele>
        <time>2016-04-10T10:03:09Z</time>
      </trkpt>
      <trkpt lat="47.86793" lon="7.20043">
        <ele>365</ele>
        <time>2016-04-10T10:03:23Z</time>
      </trkpt>
      <trkpt lat="47.86805" lon="7.20037">
        <ele>370</ele>
        <time>2016-04-10T10:03:37Z</time>
      </trkpt>
      <trkpt lat="47.86833" lon="7.2004">
        <ele>372</ele>
        <time>2016-04-10T10:04:13Z</time>
      </trkpt>
      <trkpt lat="47.86833" lon="7.2004">
        <ele>372</ele>
        <time>2016-04-10T10:04:21Z</time>
      </trkpt>
      <trkpt lat="47.86843" lon="7.20036">
        <ele>372</ele>
        <time>2016-04-10T10:04:27Z</time>
      </trkpt>
      <trkpt lat="47.8686" lon="7.20027">
        <ele>376</ele>
        <time>2016-04-10T10:04:48Z</time>
      </trkpt>
      <trkpt lat="47.86876" lon="7.20016">
        <ele>381</ele>
        <time>2016-04-10T10:05:09Z</time>
      </trkpt>
      <trkpt lat="47.86889" lon="7.20005">
        <ele>384</ele>
        <time>2016-04-10T10:05:27Z</time>
      </trkpt>
      <trkpt lat="47.86903" lon="7.19999">
        <ele>385</ele>
        <time>2016-04-10T10:05:47Z</time>
      </trkpt>
      <trkpt lat="47.86892" lon="7.19959">
        <ele>390</ele>
        <time>2016-04-10T10:06:49Z</time>
      </trkpt>
      <trkpt lat="47.86884" lon="7.1994">
        <ele>393</ele>
        <time>2016-04-10T10:07:04Z</time>
      </trkpt>
      <trkpt lat="47.86879" lon="7.19917">
        <ele>386</ele>
        <time>2016-04-10T10:07:20Z</time>
      </trkpt>
      <trkpt lat="47.86874" lon="7.19884">
        <ele>390</ele>
        <time>2016-04-10T10:07:38Z</time>
      </trkpt>
      <trkpt lat="47.86868" lon="7.19856">
        <ele>388</ele>
        <time>2016-04-10T10:07:54Z</time>
      </trkpt>
      <trkpt lat="47.86866" lon="7.19835">
        <ele>386</ele>
        <time>2016-04-10T10:08:06Z</time>
      </trkpt>
      <trkpt lat="47.86863" lon="7.1981">
        <ele>387</ele>
        <time>2016-04-10T10:08:21Z</time>
      </trkpt>
      <trkpt lat="47.8686" lon="7.19785">
        <ele>388</ele>
        <time>2016-04-10T10:08:39Z</time>
      </trkpt>
      <trkpt lat="47.86855" lon="7.19757">
        <ele>388</ele>
        <time>2016-04-10T10:08:57Z</time>
      </trkpt>
      <trkpt lat="47.86848" lon="7.19736">
        <ele>390</ele>
        <time>2016-04-10T10:09:10Z</time>
      </trkpt>
      <trkpt lat="47.86836" lon="7.19717">
        <ele>392</ele>
        <time>2016-04-10T10:09:29Z</time>
      </trkpt>
      <trkpt lat="47.86817" lon="7.19705">
        <ele>396</ele>
        <time>2016-04-10T10:09:46Z</time>
      </trkpt>
      <trkpt lat="47.86802" lon="7.19683">
        <ele>394</ele>
        <time>2016-04-10T10:10:02Z</time>
      </trkpt>
      <trkpt lat="47.86787" lon="7.19663">
        <ele>389</ele>
        <time>2016-04-10T10:10:18Z</time>
      </trkpt>
      <trkpt lat="47.86775" lon="7.19642">
        <ele>382</ele>
        <time>2016-04-10T10:10:34Z</time>
      </trkpt>
      <trkpt lat="47.86768" lon="7.19618">
        <ele>377</ele>
        <time>2016-04-10T10:10:48Z</time>
      </trkpt>
      <trkpt lat="47.86763" lon="7.19594">
        <ele>376</ele>
        <time>2016-04-10T10:11:01Z</time>
      </trkpt>
      <trkpt lat="47.86759" lon="7.19571">
        <ele>374</ele>
        <time>2016-04-10T10:11:15Z</time>
      </trkpt>
      <trkpt lat="47.86753" lon="7.19541">
        <ele>375</ele>
        <time>2016-04-10T10:11:32Z</time>
      </trkpt>
      <trkpt lat="47.86749" lon="7.1952">
        <ele>377</ele>
        <time>2016-04-10T10:11:45Z</time>
      </trkpt>
      <trkpt lat="47.86742" lon="7.19502">
        <ele>374</ele>
        <time>2016-04-10T10:11:57Z</time>
      </trkpt>
      <trkpt lat="47.86737" lon="7.19481">
        <ele>378</ele>
        <time>2016-04-10T10:12:09Z</time>
      </trkpt>
      <trkpt lat="47.8673" lon="7.1947">
        <ele>377</ele>
        <time>2016-04-10T10:12:18Z</time>
      </trkpt>
      <trkpt lat="47.8672" lon="7.19448">
        <ele>379</ele>
        <time>2016-04-10T10:12:33Z</time>
      </trkpt>
      <trkpt lat="47.86713" lon="7.19427">
        <ele>379</ele>
        <time>2016-04-10T10:12:44Z</time>
      </trkpt>
      <trkpt lat="47.86703" lon="7.19404">
        <ele>380</ele>
        <time>2016-04-10T10:12:59Z</time>
      </trkpt>
      <trkpt lat="47.8669" lon="7.19387">
        <ele>384</ele>
        <time>2016-04-10T10:13:13Z</time>
      </trkpt>
      <trkpt lat="47.86687" lon="7.19376">
        <ele>381</ele>
        <time>2016-04-10T10:13:20Z</time>
      </trkpt>
      <trkpt lat="47.86676" lon="7.19352">
        <ele>383</ele>
        <time>2016-04-10T10:13:37Z</time>
      </trkpt>
      <trkpt lat="47.86666" lon="7.19335">
        <ele>384</ele>
        <time>2016-04-10T10:13:50Z</time>
      </trkpt>
      <trkpt lat="47.86654" lon="7.19313">
        <ele>385</ele>
        <time>2016-04-10T10:14:05Z</time>
      </trkpt>
      <trkpt lat="47.86645" lon="7.19291">
        <ele>387</ele>
        <time>2016-04-10T10:14:19Z</time>
      </trkpt>
      <trkpt lat="47.86639" lon="7.19267">
        <ele>388</ele>
        <time>2016-04-10T10:14:34Z</time>
      </trkpt>
      <trkpt lat="47.86636" lon="7.19243">
        <ele>390</ele>
        <time>2016-04-10T10:14:47Z</time>
      </trkpt>
      <trkpt lat="47.86635" lon="7.19222">
        <ele>387</ele>
        <time>2016-04-10T10:14:59Z</time>
      </trkpt>
      <trkpt lat="47.86631" lon="7.19201">
        <ele>390</ele>
        <time>2016-04-10T10:15:11Z</time>
      </trkpt>
      <trkpt lat="47.8663" lon="7.19178">
        <ele>396</ele>
        <time>2016-04-10T10:15:25Z</time>
      </trkpt>
      <trkpt lat="47.8663" lon="7.19153">
        <ele>397</ele>
        <time>2016-04-10T10:15:39Z</time>
      </trkpt>
      <trkpt lat="47.86633" lon="7.19133">
        <ele>399</ele>
        <time>2016-04-10T10:15:54Z</time>
      </trkpt>
      <trkpt lat="47.86641" lon="7.19123">
        <ele>399</ele>
        <time>2016-04-10T10:16:04Z</time>
      </trkpt>
      <trkpt lat="47.86656" lon="7.19104">
        <ele>400</ele>
        <time>2016-04-10T10:16:22Z</time>
      </trkpt>
      <trkpt lat="47.86666" lon="7.19087">
        <ele>402</ele>
        <time>2016-04-10T10:16:37Z</time>
      </trkpt>
      <trkpt lat="47.86674" lon="7.19071">
        <ele>404</ele>
        <time>2016-04-10T10:16:50Z</time>
      </trkpt>
      <trkpt lat="47.86683" lon="7.19051">
        <ele>404</ele>
        <time>2016-04-10T10:17:06Z</time>
      </trkpt>
      <trkpt lat="47.8669" lon="7.19035">
        <ele>407</ele>
        <time>2016-04-10T10:17:20Z</time>
      </trkpt>
      <trkpt lat="47.86696" lon="7.19025">
        <ele>401</ele>
        <time>2016-04-10T10:17:32Z</time>
      </trkpt>
      <trkpt lat="47.86703" lon="7.19002">
        <ele>409</ele>
        <time>2016-04-10T10:17:53Z</time>
      </trkpt>
      <trkpt lat="47.86711" lon="7.18979">
        <ele>406</ele>
        <time>2016-04-10T10:18:10Z</time>
      </trkpt>
      <trkpt lat="47.86719" lon="7.18955">
        <ele>407</ele>
        <time>2016-04-10T10:18:26Z</time>
      </trkpt>
      <trkpt lat="47.86735" lon="7.1895">
        <ele>409</ele>
        <time>2016-04-10T10:18:43Z</time>
      </trkpt>
      <trkpt lat="47.86744" lon="7.18945">
        <ele>410</ele>
        <time>2016-04-10T10:18:53Z</time>
      </trkpt>
      <trkpt lat="47.86762" lon="7.18941">
        <ele>410</ele>
        <time>2016-04-10T10:19:15Z</time>
      </trkpt>
      <trkpt lat="47.86773" lon="7.18933">
        <ele>414</ele>
        <time>2016-04-10T10:19:28Z</time>
      </trkpt>
      <trkpt lat="47.86786" lon="7.18932">
        <ele>418</ele>
        <time>2016-04-10T10:19:42Z</time>
      </trkpt>
      <trkpt lat="47.86801" lon="7.18926">
        <ele>424</ele>
        <time>2016-04-10T10:20:00Z</time>
      </trkpt>
      <trkpt lat="47.86801" lon="7.18926">
        <ele>424</ele>
        <time>2016-04-10T10:20:07Z</time>
      </trkpt>
      <trkpt lat="47.86801" lon="7.18926">
        <ele>424</ele>
        <time>2016-04-10T10:20:08Z</time>
      </trkpt>
      <trkpt lat="47.86813" lon="7.18941">
        <ele>418</ele>
        <time>2016-04-10T10:20:24Z</time>
      </trkpt>
      <trkpt lat="47.86831" lon="7.18959">
        <ele>414</ele>
        <time>2016-04-10T10:20:41Z</time>
      </trkpt>
      <trkpt lat="47.86835" lon="7.18972">
        <ele>413</ele>
        <time>2016-04-10T10:20:51Z</time>
      </trkpt>
      <trkpt lat="47.8685" lon="7.18992">
        <ele>415</ele>
        <time>2016-04-10T10:21:07Z</time>
      </trkpt>
      <trkpt lat="47.86863" lon="7.19012">
        <ele>414</ele>
        <time>2016-04-10T10:21:23Z</time>
      </trkpt>
      <trkpt lat="47.86873" lon="7.19029">
        <ele>414</ele>
        <time>2016-04-10T10:21:36Z</time>
      </trkpt>
      <trkpt lat="47.86885" lon="7.1905">
        <ele>415</ele>
        <time>2016-04-10T10:21:52Z</time>
      </trkpt>
      <trkpt lat="47.869" lon="7.1907">
        <ele>417</ele>
        <time>2016-04-10T10:22:08Z</time>
      </trkpt>
      <trkpt lat="47.86912" lon="7.19086">
        <ele>417</ele>
        <time>2016-04-10T10:22:22Z</time>
      </trkpt>
      <trkpt lat="47.86927" lon="7.191">
        <ele>420</ele>
        <time>2016-04-10T10:22:39Z</time>
      </trkpt>
      <trkpt lat="47.86942" lon="7.1911">
        <ele>420</ele>
        <time>2016-04-10T10:22:57Z</time>
      </trkpt>
      <trkpt lat="47.86959" lon="7.19119">
        <ele>415</ele>
        <time>2016-04-10T10:23:10Z</time>
      </trkpt>
      <trkpt lat="47.86972" lon="7.19124">
        <ele>416</ele>
        <time>2016-04-10T10:23:18Z</time>
      </trkpt>
      <trkpt lat="47.86986" lon="7.19135">
        <ele>417</ele>
        <time>2016-04-10T10:23:32Z</time>
      </trkpt>
      <trkpt lat="47.86999" lon="7.19146">
        <ele>419</ele>
        <time>2016-04-10T10:23:45Z</time>
      </trkpt>
      <trkpt lat="47.87015" lon="7.19151">
        <ele>417</ele>
        <time>2016-04-10T10:23:57Z</time>
      </trkpt>
      <trkpt lat="47.87033" lon="7.19155">
        <ele>421</ele>
        <time>2016-04-10T10:24:12Z</time>
      </trkpt>
      <trkpt lat="47.87045" lon="7.19157">
        <ele>421</ele>
        <time>2016-04-10T10:24:23Z</time>
      </trkpt>
      <trkpt lat="47.87067" lon="7.1916">
        <ele>423</ele>
        <time>2016-04-10T10:24:40Z</time>
      </trkpt>
      <trkpt lat="47.8708" lon="7.1916">
        <ele>425</ele>
        <time>2016-04-10T10:24:50Z</time>
      </trkpt>
      <trkpt lat="47.8709" lon="7.19161">
        <ele>420</ele>
        <time>2016-04-10T10:25:04Z</time>
      </trkpt>
      <trkpt lat="47.87095" lon="7.19162">
        <ele>418</ele>
        <time>2016-04-10T10:25:10Z</time>
      </trkpt>
      <trkpt lat="47.87105" lon="7.19159">
        <ele>418</ele>
        <time>2016-04-10T10:25:23Z</time>
      </trkpt>
      <trkpt lat="47.87118" lon="7.19161">
        <ele>416</ele>
        <time>2016-04-10T10:25:35Z</time>
      </trkpt>
      <trkpt lat="47.8714" lon="7.1916">
        <ele>412</ele>
        <time>2016-04-10T10:25:55Z</time>
      </trkpt>
      <trkpt lat="47.87153" lon="7.19159">
        <ele>419</ele>
        <time>2016-04-10T10:26:06Z</time>
      </trkpt>
      <trkpt lat="47.87164" lon="7.19166">
        <ele>415</ele>
        <time>2016-04-10T10:26:18Z</time>
      </trkpt>
      <trkpt lat="47.87183" lon="7.1917">
        <ele>408</ele>
        <time>2016-04-10T10:26:36Z</time>
      </trkpt>
      <trkpt lat="47.87208" lon="7.1918">
        <ele>403</ele>
        <time>2016-04-10T10:26:52Z</time>
      </trkpt>
      <trkpt lat="47.87227" lon="7.19182">
        <ele>404</ele>
        <time>2016-04-10T10:27:06Z</time>
      </trkpt>
      <trkpt lat="47.87244" lon="7.19194">
        <ele>397</ele>
        <time>2016-04-10T10:27:27Z</time>
      </trkpt>
      <trkpt lat="47.87247" lon="7.19212">
        <ele>393</ele>
        <time>2016-04-10T10:27:37Z</time>
      </trkpt>
      <trkpt lat="47.87251" lon="7.19235">
        <ele>394</ele>
        <time>2016-04-10T10:27:53Z</time>
      </trkpt>
      <trkpt lat="47.87253" lon="7.19257">
        <ele>395</ele>
        <time>2016-04-10T10:28:05Z</time>
      </trkpt>
      <trkpt lat="47.87251" lon="7.19285">
        <ele>394</ele>
        <time>2016-04-10T10:28:21Z</time>
      </trkpt>
      <trkpt lat="47.87253" lon="7.19311">
        <ele>394</ele>
        <time>2016-04-10T10:28:34Z</time>
      </trkpt>
      <trkpt lat="47.8725" lon="7.19334">
        <ele>394</ele>
        <time>2016-04-10T10:28:44Z</time>
      </trkpt>
      <trkpt lat="47.87256" lon="7.19358">
        <ele>392</ele>
        <time>2016-04-10T10:28:58Z</time>
      </trkpt>
      <trkpt lat="47.87258" lon="7.19379">
        <ele>393</ele>
        <time>2016-04-10T10:29:07Z</time>
      </trkpt>
      <trkpt lat="47.87267" lon="7.19407">
        <ele>396</ele>
        <time>2016-04-10T10:29:21Z</time>
      </trkpt>
      <trkpt lat="47.87269" lon="7.19421">
        <ele>395</ele>
        <time>2016-04-10T10:29:29Z</time>
      </trkpt>
      <trkpt lat="47.8728" lon="7.19452">
        <ele>394</ele>
        <time>2016-04-10T10:29:46Z</time>
      </trkpt>
      <trkpt lat="47.87287" lon="7.1948">
        <ele>395</ele>
        <time>2016-04-10T10:30:02Z</time>
      </trkpt>
      <trkpt lat="47.87295" lon="7.19503">
        <ele>397</ele>
        <time>2016-04-10T10:30:14Z</time>
      </trkpt>
      <trkpt lat="47.873" lon="7.19529">
        <ele>395</ele>
        <time>2016-04-10T10:30:28Z</time>
      </trkpt>
      <trkpt lat="47.87304" lon="7.19556">
        <ele>393</ele>
        <time>2016-04-10T10:30:43Z</time>
      </trkpt>
      <trkpt lat="47.87313" lon="7.19581">
        <ele>393</ele>
        <time>2016-04-10T10:30:57Z</time>
      </trkpt>
      <trkpt lat="47.87314" lon="7.19605">
        <ele>391</ele>
        <time>2016-04-10T10:31:11Z</time>
      </trkpt>
      <trkpt lat="47.87322" lon="7.19638">
        <ele>392</ele>
        <time>2016-04-10T10:31:29Z</time>
      </trkpt>
      <trkpt lat="47.87329" lon="7.19656">
        <ele>392</ele>
        <time>2016-04-10T10:31:40Z</time>
      </trkpt>
      <trkpt lat="47.87337" lon="7.19679">
        <ele>392</ele>
        <time>2016-04-10T10:31:55Z</time>
      </trkpt>
      <trkpt lat="47.87344" lon="7.19704">
        <ele>390</ele>
        <time>2016-04-10T10:32:10Z</time>
      </trkpt>
      <trkpt lat="47.87354" lon="7.19727">
        <ele>386</ele>
        <time>2016-04-10T10:32:26Z</time>
      </trkpt>
      <trkpt lat="47.87359" lon="7.19748">
        <ele>385</ele>
        <time>2016-04-10T10:32:37Z</time>
      </trkpt>
      <trkpt lat="47.87369" lon="7.19774">
        <ele>386</ele>
        <time>2016-04-10T10:32:51Z</time>
      </trkpt>
      <trkpt lat="47.87374" lon="7.19789">
        <ele>386</ele>
        <time>2016-04-10T10:33:01Z</time>
      </trkpt>
      <trkpt lat="47.87378" lon="7.19806">
        <ele>384</ele>
        <time>2016-04-10T10:33:11Z</time>
      </trkpt>
      <trkpt lat="47.87394" lon="7.19838">
        <ele>386</ele>
        <time>2016-04-10T10:33:30Z</time>
      </trkpt>
      <trkpt lat="47.874" lon="7.19864">
        <ele>383</ele>
        <time>2016-04-10T10:33:45Z</time>
      </trkpt>
      <trkpt lat="47.87411" lon="7.1988">
        <ele>383</ele>
        <time>2016-04-10T10:33:58Z</time>
      </trkpt>
      <trkpt lat="47.87418" lon="7.19905">
        <ele>379</ele>
        <time>2016-04-10T10:34:16Z</time>
      </trkpt>
      <trkpt lat="47.87436" lon="7.19931">
        <ele>381</ele>
        <time>2016-04-10T10:34:34Z</time>
      </trkpt>
      <trkpt lat="47.87438" lon="7.19938">
        <ele>383</ele>
        <time>2016-04-10T10:34:37Z</time>
      </trkpt>
      <trkpt lat="47.87441" lon="7.19952">
        <ele>381</ele>
        <time>2016-04-10T10:34:49Z</time>
      </trkpt>
      <trkpt lat="47.87439" lon="7.19989">
        <ele>381</ele>
        <time>2016-04-10T10:35:07Z</time>
      </trkpt>
      <trkpt lat="47.87428" lon="7.20012">
        <ele>377</ele>
        <time>2016-04-10T10:35:21Z</time>
      </trkpt>
      <trkpt lat="47.87426" lon="7.20027">
        <ele>375</ele>
        <time>2016-04-10T10:35:30Z</time>
      </trkpt>
      <trkpt lat="47.87414" lon="7.20058">
        <ele>373</ele>
        <time>2016-04-10T10:35:47Z</time>
      </trkpt>
      <trkpt lat="47.87418" lon="7.20069">
        <ele>374</ele>
        <time>2016-04-10T10:35:55Z</time>
      </trkpt>
      <trkpt lat="47.87428" lon="7.2009">
        <ele>378</ele>
        <time>2016-04-10T10:36:09Z</time>
      </trkpt>
      <trkpt lat="47.87439" lon="7.20112">
        <ele>378</ele>
        <time>2016-04-10T10:36:25Z</time>
      </trkpt>
      <trkpt lat="47.87451" lon="7.20141">
        <ele>378</ele>
        <time>2016-04-10T10:36:41Z</time>
      </trkpt>
      <trkpt lat="47.87454" lon="7.20169">
        <ele>373</ele>
        <time>2016-04-10T10:36:58Z</time>
      </trkpt>
      <trkpt lat="47.87456" lon="7.202">
        <ele>373</ele>
        <time>2016-04-10T10:37:13Z</time>
      </trkpt>
      <trkpt lat="47.87454" lon="7.20222">
        <ele>370</ele>
        <time>2016-04-10T10:37:24Z</time>
      </trkpt>
      <trkpt lat="47.87456" lon="7.20258">
        <ele>370</ele>
        <time>2016-04-10T10:37:43Z</time>
      </trkpt>
      <trkpt lat="47.87453" lon="7.20286">
        <ele>368</ele>
        <time>2016-04-10T10:37:58Z</time>
      </trkpt>
      <trkpt lat="47.87472" lon="7.20292">
        <ele>370</ele>
        <time>2016-04-10T10:38:15Z</time>
      </trkpt>
      <trkpt lat="47.87486" lon="7.20295">
        <ele>370</ele>
        <time>2016-04-10T10:38:27Z</time>
      </trkpt>
      <trkpt lat="47.87507" lon="7.20295">
        <ele>374</ele>
        <time>2016-04-10T10:38:41Z</time>
      </trkpt>
      <trkpt lat="47.87525" lon="7.20296">
        <ele>375</ele>
        <time>2016-04-10T10:38:56Z</time>
      </trkpt>
      <trkpt lat="47.87537" lon="7.20307">
        <ele>374</ele>
        <time>2016-04-10T10:39:08Z</time>
      </trkpt>
      <trkpt lat="47.87541" lon="7.2033">
        <ele>374</ele>
        <time>2016-04-10T10:39:20Z</time>
      </trkpt>
      <trkpt lat="47.8755" lon="7.2035">
        <ele>372</ele>
        <time>2016-04-10T10:39:32Z</time>
      </trkpt>
      <trkpt lat="47.87562" lon="7.20372">
        <ele>372</ele>
        <time>2016-04-10T10:39:46Z</time>
      </trkpt>
      <trkpt lat="47.87575" lon="7.20386">
        <ele>373</ele>
        <time>2016-04-10T10:39:58Z</time>
      </trkpt>
      <trkpt lat="47.87588" lon="7.20402">
        <ele>369</ele>
        <time>2016-04-10T10:40:10Z</time>
      </trkpt>
      <trkpt lat="47.87598" lon="7.20412">
        <ele>371</ele>
        <time>2016-04-10T10:40:18Z</time>
      </trkpt>
      <trkpt lat="47.87609" lon="7.20425">
        <ele>373</ele>
        <time>2016-04-10T10:40:29Z</time>
      </trkpt>
      <trkpt lat="47.87618" lon="7.20437">
        <ele>372</ele>
        <time>2016-04-10T10:40:38Z</time>
      </trkpt>
      <trkpt lat="47.87628" lon="7.20453">
        <ele>371</ele>
        <time>2016-04-10T10:40:50Z</time>
      </trkpt>
      <trkpt lat="47.87644" lon="7.20474">
        <ele>371</ele>
        <time>2016-04-10T10:41:06Z</time>
      </trkpt>
      <trkpt lat="47.8766" lon="7.20493">
        <ele>372</ele>
        <time>2016-04-10T10:41:21Z</time>
      </trkpt>
      <trkpt lat="47.87671" lon="7.20511">
        <ele>369</ele>
        <time>2016-04-10T10:41:34Z</time>
      </trkpt>
      <trkpt lat="47.87679" lon="7.20533">
        <ele>365</ele>
        <time>2016-04-10T10:41:49Z</time>
      </trkpt>
      <trkpt lat="47.87689" lon="7.20553">
        <ele>363</ele>
        <time>2016-04-10T10:42:03Z</time>
      </trkpt>
      <trkpt lat="47.87704" lon="7.20578">
        <ele>366</ele>
        <time>2016-04-10T10:42:20Z</time>
      </trkpt>
      <trkpt lat="47.8771" lon="7.20595">
        <ele>365</ele>
        <time>2016-04-10T10:42:30Z</time>
      </trkpt>
      <trkpt lat="47.87717" lon="7.20614">
        <ele>365</ele>
        <time>2016-04-10T10:42:41Z</time>
      </trkpt>
      <trkpt lat="47.87726" lon="7.20629">
        <ele>364</ele>
        <time>2016-04-10T10:42:50Z</time>
      </trkpt>
      <trkpt lat="47.87733" lon="7.20646">
        <ele>361</ele>
        <time>2016-04-10T10:43:00Z</time>
      </trkpt>
      <trkpt lat="47.87741" lon="7.20668">
        <ele>361</ele>
        <time>2016-04-10T10:43:13Z</time>
      </trkpt>
      <trkpt lat="47.87742" lon="7.20683">
        <ele>359</ele>
        <time>2016-04-10T10:43:23Z</time>
      </trkpt>
      <trkpt lat="47.87756" lon="7.20711">
        <ele>358</ele>
        <time>2016-04-10T10:43:39Z</time>
      </trkpt>
      <trkpt lat="47.87763" lon="7.20735">
        <ele>357</ele>
        <time>2016-04-10T10:43:52Z</time>
      </trkpt>
      <trkpt lat="47.87767" lon="7.2075">
        <ele>357</ele>
        <time>2016-04-10T10:44:01Z</time>
      </trkpt>
      <trkpt lat="47.87774" lon="7.20767">
        <ele>357</ele>
        <time>2016-04-10T10:44:11Z</time>
      </trkpt>
      <trkpt lat="47.87782" lon="7.20793">
        <ele>356</ele>
        <time>2016-04-10T10:44:26Z</time>
      </trkpt>
      <trkpt lat="47.87793" lon="7.20817">
        <ele>358</ele>
        <time>2016-04-10T10:44:40Z</time>
      </trkpt>
      <trkpt lat="47.878" lon="7.2084">
        <ele>358</ele>
        <time>2016-04-10T10:44:53Z</time>
      </trkpt>
      <trkpt lat="47.87803" lon="7.20857">
        <ele>357</ele>
        <time>2016-04-10T10:45:03Z</time>
      </trkpt>
      <trkpt lat="47.87816" lon="7.20888">
        <ele>357</ele>
        <time>2016-04-10T10:45:21Z</time>
      </trkpt>
      <trkpt lat="47.87829" lon="7.20915">
        <ele>353</ele>
        <time>2016-04-10T10:45:39Z</time>
      </trkpt>
      <trkpt lat="47.87843" lon="7.20944">
        <ele>353</ele>
        <time>2016-04-10T10:45:57Z</time>
      </trkpt>
      <trkpt lat="47.87851" lon="7.20959">
        <ele>351</ele>
        <time>2016-04-10T10:46:07Z</time>
      </trkpt>
      <trkpt lat="47.87857" lon="7.20982">
        <ele>349</ele>
        <time>2016-04-10T10:46:20Z</time>
      </trkpt>
      <trkpt lat="47.8787" lon="7.21009">
        <ele>348</ele>
        <time>2016-04-10T10:46:37Z</time>
      </trkpt>
      <trkpt lat="47.87878" lon="7.21024">
        <ele>351</ele>
        <time>2016-04-10T10:46:47Z</time>
      </trkpt>
      <trkpt lat="47.87899" lon="7.21022">
        <ele>351</ele>
        <time>2016-04-10T10:47:04Z</time>
      </trkpt>
      <trkpt lat="47.87916" lon="7.21025">
        <ele>349</ele>
        <time>2016-04-10T10:47:17Z</time>
      </trkpt>
      <trkpt lat="47.87932" lon="7.21025">
        <ele>349</ele>
        <time>2016-04-10T10:47:30Z</time>
      </trkpt>
      <trkpt lat="47.87938" lon="7.2105">
        <ele>346</ele>
        <time>2016-04-10T10:47:44Z</time>
      </trkpt>
      <trkpt lat="47.87942" lon="7.21081">
        <ele>341</ele>
        <time>2016-04-10T10:48:01Z</time>
      </trkpt>
      <trkpt lat="47.87945" lon="7.21106">
        <ele>334</ele>
        <time>2016-04-10T10:48:16Z</time>
      </trkpt>
      <trkpt lat="47.87957" lon="7.2114">
        <ele>341</ele>
        <time>2016-04-10T10:48:34Z</time>
      </trkpt>
      <trkpt lat="47.87962" lon="7.21155">
        <ele>338</ele>
        <time>2016-04-10T10:48:44Z</time>
      </trkpt>
      <trkpt lat="47.87965" lon="7.21184">
        <ele>338</ele>
        <time>2016-04-10T10:48:59Z</time>
      </trkpt>
      <trkpt lat="47.87968" lon="7.21206">
        <ele>338</ele>
        <time>2016-04-10T10:49:11Z</time>
      </trkpt>
      <trkpt lat="47.87979" lon="7.21235">
        <ele>341</ele>
        <time>2016-04-10T10:49:30Z</time>
      </trkpt>
      <trkpt lat="47.87989" lon="7.21256">
        <ele>343</ele>
        <time>2016-04-10T10:49:42Z</time>
      </trkpt>
      <trkpt lat="47.87993" lon="7.21284">
        <ele>340</ele>
        <time>2016-04-10T10:49:57Z</time>
      </trkpt>
      <trkpt lat="47.87994" lon="7.21308">
        <ele>340</ele>
        <time>2016-04-10T10:50:09Z</time>
      </trkpt>
      <trkpt lat="47.87999" lon="7.21334">
        <ele>339</ele>
        <time>2016-04-10T10:50:23Z</time>
      </trkpt>
      <trkpt lat="47.88002" lon="7.21355">
        <ele>339</ele>
        <time>2016-04-10T10:50:36Z</time>
      </trkpt>
      <trkpt lat="47.88008" lon="7.21374">
        <ele>337</ele>
        <time>2016-04-10T10:50:48Z</time>
      </trkpt>
      <trkpt lat="47.88013" lon="7.21405">
        <ele>339</ele>
        <time>2016-04-10T10:51:03Z</time>
      </trkpt>
      <trkpt lat="47.88021" lon="7.21439">
        <ele>342</ele>
        <time>2016-04-10T10:51:22Z</time>
      </trkpt>
      <trkpt lat="47.88021" lon="7.21439">
        <ele>342</ele>
        <time>2016-04-10T10:51:30Z</time>
      </trkpt>
      <trkpt lat="47.88021" lon="7.21439">
        <ele>342</ele>
        <time>2016-04-10T10:51:31Z</time>
      </trkpt>
      <trkpt lat="47.8802" lon="7.21462">
        <ele>343</ele>
        <time>2016-04-10T10:51:39Z</time>
      </trkpt>
      <trkpt lat="47.88023" lon="7.21483">
        <ele>343</ele>
        <time>2016-04-10T10:51:49Z</time>
      </trkpt>
      <trkpt lat="47.88027" lon="7.21509">
        <ele>340</ele>
        <time>2016-04-10T10:52:03Z</time>
      </trkpt>
      <trkpt lat="47.8803" lon="7.21528">
        <ele>338</ele>
        <time>2016-04-10T10:52:15Z</time>
      </trkpt>
      <trkpt lat="47.88036" lon="7.2155">
        <ele>336</ele>
        <time>2016-04-10T10:52:28Z</time>
      </trkpt>
      <trkpt lat="47.88038" lon="7.21578">
        <ele>333</ele>
        <time>2016-04-10T10:52:44Z</time>
      </trkpt>
      <trkpt lat="47.8804" lon="7.21591">
        <ele>334</ele>
        <time>2016-04-10T10:52:50Z</time>
      </trkpt>
      <trkpt lat="47.88041" lon="7.21605">
        <ele>334</ele>
        <time>2016-04-10T10:52:58Z</time>
      </trkpt>
      <trkpt lat="47.88047" lon="7.21638">
        <ele>334</ele>
        <time>2016-04-10T10:53:14Z</time>
      </trkpt>
      <trkpt lat="47.88049" lon="7.21653">
        <ele>335</ele>
        <time>2016-04-10T10:53:22Z</time>
      </trkpt>
      <trkpt lat="47.88053" lon="7.21668">
        <ele>335</ele>
        <time>2016-04-10T10:53:30Z</time>
      </trkpt>
      <trkpt lat="47.88054" lon="7.21696">
        <ele>336</ele>
        <time>2016-04-10T10:53:45Z</time>
      </trkpt>
      <trkpt lat="47.88059" lon="7.21719">
        <ele>334</ele>
        <time>2016-04-10T10:53:58Z</time>
      </trkpt>
      <trkpt lat="47.88063" lon="7.21737">
        <ele>335</ele>
        <time>2016-04-10T10:54:09Z</time>
      </trkpt>
      <trkpt lat="47.88068" lon="7.21767">
        <ele>335</ele>
        <time>2016-04-10T10:54:26Z</time>
      </trkpt>
      <trkpt lat="47.8807" lon="7.21793">
        <ele>332</ele>
        <time>2016-04-10T10:54:40Z</time>
      </trkpt>
      <trkpt lat="47.88077" lon="7.21814">
        <ele>335</ele>
        <time>2016-04-10T10:54:57Z</time>
      </trkpt>
      <trkpt lat="47.88082" lon="7.21836">
        <ele>336</ele>
        <time>2016-04-10T10:55:08Z</time>
      </trkpt>
      <trkpt lat="47.88085" lon="7.21867">
        <ele>335</ele>
        <time>2016-04-10T10:55:21Z</time>
      </trkpt>
      <trkpt lat="47.88088" lon="7.21891">
        <ele>334</ele>
        <time>2016-04-10T10:55:33Z</time>
      </trkpt>
      <trkpt lat="47.88093" lon="7.21909">
        <ele>335</ele>
        <time>2016-04-10T10:55:44Z</time>
      </trkpt>
      <trkpt lat="47.88095" lon="7.21921">
        <ele>335</ele>
        <time>2016-04-10T10:55:51Z</time>
      </trkpt>
      <trkpt lat="47.88104" lon="7.2194">
        <ele>334</ele>
        <time>2016-04-10T10:56:02Z</time>
      </trkpt>
      <trkpt lat="47.8811" lon="7.21966">
        <ele>334</ele>
        <time>2016-04-10T10:56:17Z</time>
      </trkpt>
      <trkpt lat="47.88116" lon="7.21989">
        <ele>337</ele>
        <time>2016-04-10T10:56:29Z</time>
      </trkpt>
      <trkpt lat="47.88113" lon="7.21993">
        <ele>336</ele>
        <time>2016-04-10T10:56:37Z</time>
      </trkpt>
      <trkpt lat="47.88129" lon="7.22004">
        <ele>337</ele>
        <time>2016-04-10T10:57:02Z</time>
      </trkpt>
      <trkpt lat="47.8814" lon="7.22024">
        <ele>337</ele>
        <time>2016-04-10T10:57:13Z</time>
      </trkpt>
      <trkpt lat="47.88145" lon="7.22047">
        <ele>340</ele>
        <time>2016-04-10T10:57:25Z</time>
      </trkpt>
      <trkpt lat="47.88151" lon="7.22075">
        <ele>335</ele>
        <time>2016-04-10T10:57:42Z</time>
      </trkpt>
      <trkpt lat="47.88148" lon="7.22099">
        <ele>332</ele>
        <time>2016-04-10T10:57:55Z</time>
      </trkpt>
      <trkpt lat="47.88147" lon="7.22127">
        <ele>334</ele>
        <time>2016-04-10T10:58:09Z</time>
      </trkpt>
      <trkpt lat="47.88152" lon="7.22156">
        <ele>333</ele>
        <time>2016-04-10T10:58:27Z</time>
      </trkpt>
      <trkpt lat="47.88157" lon="7.22187">
        <ele>330</ele>
        <time>2016-04-10T10:58:44Z</time>
      </trkpt>
      <trkpt lat="47.88162" lon="7.22203">
        <ele>328</ele>
        <time>2016-04-10T10:58:55Z</time>
      </trkpt>
      <trkpt lat="47.88172" lon="7.22226">
        <ele>325</ele>
        <time>2016-04-10T10:59:15Z</time>
      </trkpt>
      <trkpt lat="47.88184" lon="7.22228">
        <ele>327</ele>
        <time>2016-04-10T10:59:27Z</time>
      </trkpt>
      <trkpt lat="47.882" lon="7.22228">
        <ele>325</ele>
        <time>2016-04-10T10:59:43Z</time>
      </trkpt>
      <trkpt lat="47.882" lon="7.22228">
        <ele>325</ele>
        <time>2016-04-10T10:59:51Z</time>
      </trkpt>
      <trkpt lat="47.882" lon="7.22228">
        <ele>325</ele>
        <time>2016-04-10T10:59:53Z</time>
      </trkpt>
      <trkpt lat="47.88207" lon="7.22248">
        <ele>330</ele>
        <time>2016-04-10T11:11:15Z</time>
      </trkpt>
      <trkpt lat="47.88204" lon="7.22277">
        <ele>325</ele>
        <time>2016-04-10T11:11:32Z</time>
      </trkpt>
      <trkpt lat="47.88204" lon="7.22297">
        <ele>328</ele>
        <time>2016-04-10T11:11:44Z</time>
      </trkpt>
      <trkpt lat="47.88191" lon="7.22309">
        <ele>325</ele>
        <time>2016-04-10T11:11:55Z</time>
      </trkpt>
      <trkpt lat="47.88186" lon="7.22324">
        <ele>329</ele>
        <time>2016-04-10T11:12:06Z</time>
      </trkpt>
      <trkpt lat="47.88188" lon="7.22351">
        <ele>330</ele>
        <time>2016-04-10T11:12:19Z</time>
      </trkpt>
      <trkpt lat="47.88193" lon="7.22375">
        <ele>329</ele>
        <time>2016-04-10T11:12:33Z</time>
      </trkpt>
      <trkpt lat="47.88205" lon="7.22408">
        <ele>330</ele>
        <time>2016-04-10T11:12:50Z</time>
      </trkpt>
      <trkpt lat="47.88211" lon="7.22428">
        <ele>328</ele>
        <time>2016-04-10T11:13:03Z</time>
      </trkpt>
      <trkpt lat="47.88221" lon="7.22456">
        <ele>325</ele>
        <time>2016-04-10T11:13:22Z</time>
      </trkpt>
      <trkpt lat="47.88236" lon="7.22484">
        <ele>329</ele>
        <time>2016-04-10T11:13:38Z</time>
      </trkpt>
      <trkpt lat="47.88247" lon="7.22494">
        <ele>325</ele>
        <time>2016-04-10T11:13:51Z</time>
      </trkpt>
      <trkpt lat="47.8826" lon="7.22496">
        <ele>322</ele>
        <time>2016-04-10T11:14:01Z</time>
      </trkpt>
      <trkpt lat="47.88269" lon="7.22507">
        <ele>326</ele>
        <time>2016-04-10T11:14:09Z</time>
      </trkpt>
      <trkpt lat="47.8828" lon="7.22519">
        <ele>327</ele>
        <time>2016-04-10T11:14:22Z</time>
      </trkpt>
      <trkpt lat="47.88298" lon="7.22524">
        <ele>326</ele>
        <time>2016-04-10T11:14:35Z</time>
      </trkpt>
      <trkpt lat="47.88314" lon="7.22529">
        <ele>324</ele>
        <time>2016-04-10T11:14:49Z</time>
      </trkpt>
      <trkpt lat="47.88331" lon="7.22541">
        <ele>324</ele>
        <time>2016-04-10T11:15:08Z</time>
      </trkpt>
      <trkpt lat="47.88359" lon="7.22531">
        <ele>329</ele>
        <time>2016-04-10T11:15:27Z</time>
      </trkpt>
      <trkpt lat="47.88374" lon="7.22534">
        <ele>330</ele>
        <time>2016-04-10T11:15:39Z</time>
      </trkpt>
      <trkpt lat="47.88389" lon="7.22527">
        <ele>337</ele>
        <time>2016-04-10T11:15:50Z</time>
      </trkpt>
      <trkpt lat="47.88396" lon="7.22537">
        <ele>331</ele>
        <time>2016-04-10T11:16:02Z</time>
      </trkpt>
      <trkpt lat="47.88397" lon="7.22563">
        <ele>326</ele>
        <time>2016-04-10T11:16:13Z</time>
      </trkpt>
      <trkpt lat="47.88401" lon="7.22567">
        <ele>327</ele>
        <time>2016-04-10T11:16:16Z</time>
      </trkpt>
      <trkpt lat="47.88409" lon="7.2258">
        <ele>327</ele>
        <time>2016-04-10T11:16:26Z</time>
      </trkpt>
      <trkpt lat="47.88426" lon="7.22596">
        <ele>325</ele>
        <time>2016-04-10T11:16:40Z</time>
      </trkpt>
      <trkpt lat="47.88439" lon="7.22617">
        <ele>327</ele>
        <time>2016-04-10T11:16:55Z</time>
      </trkpt>
      <trkpt lat="47.88446" lon="7.22636">
        <ele>328</ele>
        <time>2016-04-10T11:17:08Z</time>
      </trkpt>
      <trkpt lat="47.88459" lon="7.22653">
        <ele>324</ele>
        <time>2016-04-10T11:17:23Z</time>
      </trkpt>
      <trkpt lat="47.88473" lon="7.22673">
        <ele>326</ele>
        <time>2016-04-10T11:17:40Z</time>
      </trkpt>
      <trkpt lat="47.88493" lon="7.22693">
        <ele>322</ele>
        <time>2016-04-10T11:17:59Z</time>
      </trkpt>
      <trkpt lat="47.8851" lon="7.22712">
        <ele>324</ele>
        <time>2016-04-10T11:18:15Z</time>
      </trkpt>
      <trkpt lat="47.88516" lon="7.22731">
        <ele>322</ele>
        <time>2016-04-10T11:18:29Z</time>
      </trkpt>
      <trkpt lat="47.8853" lon="7.22746">
        <ele>320</ele>
        <time>2016-04-10T11:18:41Z</time>
      </trkpt>
      <trkpt lat="47.88542" lon="7.22755">
        <ele>322</ele>
        <time>2016-04-10T11:18:48Z</time>
      </trkpt>
      <trkpt lat="47.88546" lon="7.22775">
        <ele>317</ele>
        <time>2016-04-10T11:18:59Z</time>
      </trkpt>
      <trkpt lat="47.88559" lon="7.22796">
        <ele>316</ele>
        <time>2016-04-10T11:19:14Z</time>
      </trkpt>
      <trkpt lat="47.8857" lon="7.22807">
        <ele>319</ele>
        <time>2016-04-10T11:19:29Z</time>
      </trkpt>
      <trkpt lat="47.88581" lon="7.2282">
        <ele>320</ele>
        <time>2016-04-10T11:19:39Z</time>
      </trkpt>
      <trkpt lat="47.88602" lon="7.22827">
        <ele>323</ele>
        <time>2016-04-10T11:19:54Z</time>
      </trkpt>
      <trkpt lat="47.88624" lon="7.22848">
        <ele>322</ele>
        <time>2016-04-10T11:20:11Z</time>
      </trkpt>
      <trkpt lat="47.88641" lon="7.22859">
        <ele>326</ele>
        <time>2016-04-10T11:20:25Z</time>
      </trkpt>
      <trkpt lat="47.88656" lon="7.22874">
        <ele>327</ele>
        <time>2016-04-10T11:20:41Z</time>
      </trkpt>
      <trkpt lat="47.88663" lon="7.22881">
        <ele>324</ele>
        <time>2016-04-10T11:20:46Z</time>
      </trkpt>
      <trkpt lat="47.88675" lon="7.2289">
        <ele>325</ele>
        <time>2016-04-10T11:21:00Z</time>
      </trkpt>
      <trkpt lat="47.8869" lon="7.2291">
        <ele>322</ele>
        <time>2016-04-10T11:21:15Z</time>
      </trkpt>
      <trkpt lat="47.88701" lon="7.22925">
        <ele>323</ele>
        <time>2016-04-10T11:21:26Z</time>
      </trkpt>
      <trkpt lat="47.88711" lon="7.2294">
        <ele>324</ele>
        <time>2016-04-10T11:21:37Z</time>
      </trkpt>
      <trkpt lat="47.88708" lon="7.2297">
        <ele>323</ele>
        <time>2016-04-10T11:21:54Z</time>
      </trkpt>
      <trkpt lat="47.88704" lon="7.22974">
        <ele>322</ele>
        <time>2016-04-10T11:21:57Z</time>
      </trkpt>
      <trkpt lat="47.88697" lon="7.22984">
        <ele>318</ele>
        <time>2016-04-10T11:22:13Z</time>
      </trkpt>
      <trkpt lat="47.88691" lon="7.23021">
        <ele>313</ele>
        <time>2016-04-10T11:22:32Z</time>
      </trkpt>
      <trkpt lat="47.88692" lon="7.23036">
        <ele>314</ele>
        <time>2016-04-10T11:22:40Z</time>
      </trkpt>
      <trkpt lat="47.88697" lon="7.23049">
        <ele>314</ele>
        <time>2016-04-10T11:22:54Z</time>
      </trkpt>
      <trkpt lat="47.88694" lon="7.23078">
        <ele>318</ele>
        <time>2016-04-10T11:23:06Z</time>
      </trkpt>
      <trkpt lat="47.88703" lon="7.23097">
        <ele>318</ele>
        <time>2016-04-10T11:23:17Z</time>
      </trkpt>
      <trkpt lat="47.887" lon="7.23121">
        <ele>319</ele>
        <time>2016-04-10T11:23:33Z</time>
      </trkpt>
      <trkpt lat="47.88691" lon="7.2314">
        <ele>321</ele>
        <time>2016-04-10T11:23:46Z</time>
      </trkpt>
      <trkpt lat="47.88689" lon="7.23161">
        <ele>320</ele>
        <time>2016-04-10T11:23:59Z</time>
      </trkpt>
      <trkpt lat="47.88698" lon="7.23181">
        <ele>320</ele>
        <time>2016-04-10T11:24:16Z</time>
      </trkpt>
      <trkpt lat="47.88718" lon="7.23169">
        <ele>320</ele>
        <time>2016-04-10T11:24:32Z</time>
      </trkpt>
      <trkpt lat="47.88731" lon="7.23164">
        <ele>316</ele>
        <time>2016-04-10T11:24:44Z</time>
      </trkpt>
      <trkpt lat="47.88731" lon="7.23164">
        <ele>316</ele>
        <time>2016-04-10T11:24:51Z</time>
      </trkpt>
      <trkpt lat="47.88731" lon="7.23164">
        <ele>316</ele>
        <time>2016-04-10T11:24:52Z</time>
      </trkpt>
      <trkpt lat="47.88745" lon="7.23163">
        <ele>313</ele>
        <time>2016-04-10T11:25:06Z</time>
      </trkpt>
      <trkpt lat="47.88761" lon="7.23173">
        <ele>314</ele>
        <time>2016-04-10T11:25:24Z</time>
      </trkpt>
      <trkpt lat="47.88773" lon="7.23194">
        <ele>316</ele>
        <time>2016-04-10T11:25:41Z</time>
      </trkpt>
      <trkpt lat="47.88789" lon="7.23212">
        <ele>316</ele>
        <time>2016-04-10T11:25:58Z</time>
      </trkpt>
      <trkpt lat="47.88804" lon="7.23205">
        <ele>316</ele>
        <time>2016-04-10T11:26:09Z</time>
      </trkpt>
      <trkpt lat="47.88821" lon="7.23211">
        <ele>311</ele>
        <time>2016-04-10T11:26:23Z</time>
      </trkpt>
      <trkpt lat="47.88826" lon="7.23208">
        <ele>313</ele>
        <time>2016-04-10T11:26:28Z</time>
      </trkpt>
      <trkpt lat="47.88827" lon="7.23209">
        <ele>312</ele>
        <time>2016-04-10T11:26:36Z</time>
      </trkpt>
      <trkpt lat="47.88827" lon="7.23209">
        <ele>267</ele>
        <time>2016-04-10T11:28:12Z</time>
      </trkpt>
      <trkpt lat="47.88827" lon="7.23209">
        <ele>267</ele>
        <time>2016-04-10T11:28:22Z</time>
      </trkpt>
    </trkseg>
  </trk>
</gpx>